sensor_id;sensor_type;location;lat;lon;timestamp;pressure;altitude;pressure_sealevel;temperature;humidity
22657;BME280;11495;55.610;12.100;2022-08-27T00:01:33;100910.12;;;20.24;0.00
22657;BME280;11495;55.610;12.100;2022-08-27T00:03:58;100903.25;;;20.21;0.00
22657;BME280;11495;55.610;12.100;2022-08-27T00:06:25;100905.06;;;20.17;0.00
22657;BME280;11495;55.610;12.100;2022-08-27T00:08:52;100893.59;;;20.10;0.00
22657;BME280;11495;55.610;12.100;2022-08-27T00:11:19;100899.41;;;20.05;0.00
22657;BME280;11495;55.610;12.100;2022-08-27T00:13:48;100904.00;;;20.01;0.00
22657;BME280;11495;55.610;12.100;2022-08-27T00:16:15;100895.03;;;19.95;0.00
22657;BME280;11495;55.610;12.100;2022-08-27T00:18:44;100889.62;;;19.90;0.00
22657;BME280;11495;55.610;12.100;2022-08-27T00:21:11;100894.37;;;19.89;0.00
22657;BME280;11495;55.610;12.100;2022-08-27T00:23:37;100900.44;;;19.91;0.00
22657;BME280;11495;55.610;12.100;2022-08-27T00:26:04;100883.34;;;19.93;0.00
22657;BME280;11495;55.610;12.100;2022-08-27T00:28:31;100878.47;;;19.90;0.00
22657;BME280;11495;55.610;12.100;2022-08-27T00:30:57;100879.12;;;19.87;0.00
22657;BME280;11495;55.610;12.100;2022-08-27T00:33:23;100873.56;;;19.87;0.00
22657;BME280;11495;55.610;12.100;2022-08-27T00:35:49;100873.56;;;19.87;0.00
22657;BME280;11495;55.610;12.100;2022-08-27T00:38:15;100865.50;;;19.85;0.00
22657;BME280;11495;55.610;12.100;2022-08-27T00:40:40;100862.69;;;19.85;0.00
22657;BME280;11495;55.610;12.100;2022-08-27T00:43:06;100856.00;;;19.86;0.00
22657;BME280;11495;55.610;12.100;2022-08-27T00:45:37;100859.91;;;19.85;0.00
22657;BME280;11495;55.610;12.100;2022-08-27T00:48:03;100857.47;;;19.84;0.00
22657;BME280;11495;55.610;12.100;2022-08-27T00:50:34;100854.03;;;19.87;0.00
22657;BME280;11495;55.610;12.100;2022-08-27T00:53:08;100841.06;;;19.82;0.00
22657;BME280;11495;55.610;12.100;2022-08-27T00:55:42;100843.37;;;19.80;0.00
22657;BME280;11495;55.610;12.100;2022-08-27T00:58:19;100845.19;;;19.76;0.00
22657;BME280;11495;55.610;12.100;2022-08-27T01:00:48;100844.72;;;19.74;0.00
22657;BME280;11495;55.610;12.100;2022-08-27T01:03:18;100842.62;;;19.71;0.00
22657;BME280;11495;55.610;12.100;2022-08-27T01:05:44;100847.37;;;19.71;0.00
22657;BME280;11495;55.610;12.100;2022-08-27T01:08:20;100848.31;;;19.75;0.00
22657;BME280;11495;55.610;12.100;2022-08-27T01:10:47;100859.84;;;19.73;0.00
22657;BME280;11495;55.610;12.100;2022-08-27T01:13:15;100862.62;;;19.73;0.00
22657;BME280;11495;55.610;12.100;2022-08-27T01:15:45;100862.62;;;19.73;0.00
22657;BME280;11495;55.610;12.100;2022-08-27T01:18:12;100856.69;;;19.75;0.00
22657;BME280;11495;55.610;12.100;2022-08-27T01:20:55;100862.16;;;19.71;0.00
22657;BME280;11495;55.610;12.100;2022-08-27T01:23:38;100865.75;;;19.72;0.00
22657;BME280;11495;55.610;12.100;2022-08-27T01:26:08;100865.41;;;19.73;0.00
22657;BME280;11495;55.610;12.100;2022-08-27T01:28:37;100859.50;;;19.75;0.00
22657;BME280;11495;55.610;12.100;2022-08-27T01:31:05;100869.84;;;19.74;0.00
22657;BME280;11495;55.610;12.100;2022-08-27T01:33:31;100861.47;;;19.74;0.00
22657;BME280;11495;55.610;12.100;2022-08-27T01:35:57;100863.56;;;19.77;0.00
22657;BME280;11495;55.610;12.100;2022-08-27T01:38:22;100857.34;;;19.80;0.00
22657;BME280;11495;55.610;12.100;2022-08-27T01:40:49;100864.91;;;19.80;0.00
22657;BME280;11495;55.610;12.100;2022-08-27T01:43:15;100850.13;;;19.79;0.00
22657;BME280;11495;55.610;12.100;2022-08-27T01:45:45;100851.41;;;19.82;0.00
22657;BME280;11495;55.610;12.100;2022-08-27T01:48:13;100835.47;;;19.82;0.00
22657;BME280;11495;55.610;12.100;2022-08-27T01:50:40;100836.63;;;19.81;0.00
22657;BME280;11495;55.610;12.100;2022-08-27T01:53:09;100843.84;;;19.82;0.00
22657;BME280;11495;55.610;12.100;2022-08-27T01:55:37;100838.09;;;19.87;0.00
22657;BME280;11495;55.610;12.100;2022-08-27T01:58:03;100833.16;;;19.84;0.00
22657;BME280;11495;55.610;12.100;2022-08-27T02:00:31;100837.09;;;19.83;0.00
22657;BME280;11495;55.610;12.100;2022-08-27T02:02:58;100833.37;;;19.79;0.00
22657;BME280;11495;55.610;12.100;2022-08-27T02:05:25;100836.50;;;19.78;0.00
22657;BME280;11495;55.610;12.100;2022-08-27T02:07:51;100830.94;;;19.78;0.00
22657;BME280;11495;55.610;12.100;2022-08-27T02:10:24;100827.97;;;19.74;0.00
22657;BME280;11495;55.610;12.100;2022-08-27T02:12:50;100830.06;;;19.77;0.00
22657;BME280;11495;55.610;12.100;2022-08-27T02:15:17;100831.25;;;19.76;0.00
22657;BME280;11495;55.610;12.100;2022-08-27T02:17:44;100838.13;;;19.79;0.00
22657;BME280;11495;55.610;12.100;2022-08-27T02:20:11;100844.03;;;19.77;0.00
22657;BME280;11495;55.610;12.100;2022-08-27T02:22:38;100845.19;;;19.76;0.00
22657;BME280;11495;55.610;12.100;2022-08-27T02:25:05;100850.94;;;19.80;0.00
22657;BME280;11495;55.610;12.100;2022-08-27T02:27:31;100842.91;;;19.78;0.00
22657;BME280;11495;55.610;12.100;2022-08-27T02:29:57;100839.44;;;19.81;0.00
22657;BME280;11495;55.610;12.100;2022-08-27T02:32:22;100834.31;;;19.83;0.00
22657;BME280;11495;55.610;12.100;2022-08-27T02:34:48;100838.75;;;19.84;0.00
22657;BME280;11495;55.610;12.100;2022-08-27T02:37:13;100835.81;;;19.81;0.00
22657;BME280;11495;55.610;12.100;2022-08-27T02:39:39;100830.59;;;19.79;0.00
22657;BME280;11495;55.610;12.100;2022-08-27T02:42:04;100836.16;;;19.79;0.00
22657;BME280;11495;55.610;12.100;2022-08-27T02:44:29;100831.75;;;19.78;0.00
22657;BME280;11495;55.610;12.100;2022-08-27T02:46:56;100825.66;;;19.76;0.00
22657;BME280;11495;55.610;12.100;2022-08-27T02:49:22;100823.69;;;19.77;0.00
22657;BME280;11495;55.610;12.100;2022-08-27T02:51:52;100820.41;;;19.75;0.00
22657;BME280;11495;55.610;12.100;2022-08-27T02:54:18;100813.69;;;19.76;0.00
22657;BME280;11495;55.610;12.100;2022-08-27T02:56:43;100793.31;;;19.75;0.00
22657;BME280;11495;55.610;12.100;2022-08-27T02:59:09;100788.91;;;19.74;0.00
22657;BME280;11495;55.610;12.100;2022-08-27T03:01:34;100787.41;;;19.77;0.00
22657;BME280;11495;55.610;12.100;2022-08-27T03:04:00;100786.59;;;19.76;0.00
22657;BME280;11495;55.610;12.100;2022-08-27T03:06:26;100781.00;;;19.76;0.00
22657;BME280;11495;55.610;12.100;2022-08-27T03:08:51;100773.44;;;19.77;0.00
22657;BME280;11495;55.610;12.100;2022-08-27T03:11:17;100764.75;;;19.78;0.00
22657;BME280;11495;55.610;12.100;2022-08-27T03:13:42;100760.81;;;19.79;0.00
22657;BME280;11495;55.610;12.100;2022-08-27T03:16:07;100758.47;;;19.81;0.00
22657;BME280;11495;55.610;12.100;2022-08-27T03:18:33;100750.22;;;19.85;0.00
22657;BME280;11495;55.610;12.100;2022-08-27T03:20:59;100749.91;;;19.86;0.00
22657;BME280;11495;55.610;12.100;2022-08-27T03:23:30;100738.06;;;19.89;0.00
22657;BME280;11495;55.610;12.100;2022-08-27T03:26:01;100731.66;;;19.89;0.00
22657;BME280;11495;55.610;12.100;2022-08-27T03:28:31;100730.84;;;19.88;0.00
22657;BME280;11495;55.610;12.100;2022-08-27T03:31:00;100722.00;;;19.86;0.00
22657;BME280;11495;55.610;12.100;2022-08-27T03:33:34;100718.87;;;19.88;0.00
22657;BME280;11495;55.610;12.100;2022-08-27T03:36:00;100706.06;;;19.87;0.00
22657;BME280;11495;55.610;12.100;2022-08-27T03:38:26;100698.97;;;19.89;0.00
22657;BME280;11495;55.610;12.100;2022-08-27T03:40:52;100699.69;;;19.86;0.00
22657;BME280;11495;55.610;12.100;2022-08-27T03:43:19;100685.22;;;19.84;0.00
22657;BME280;11495;55.610;12.100;2022-08-27T03:45:45;100685.56;;;19.83;0.00
22657;BME280;11495;55.610;12.100;2022-08-27T03:48:12;100682.78;;;19.83;0.00
22657;BME280;11495;55.610;12.100;2022-08-27T03:50:41;100673.25;;;19.84;0.00
22657;BME280;11495;55.610;12.100;2022-08-27T03:53:08;100678.00;;;19.83;0.00
22657;BME280;11495;55.610;12.100;2022-08-27T03:55:33;100668.69;;;19.79;0.00
22657;BME280;11495;55.610;12.100;2022-08-27T03:57:59;100673.31;;;19.75;0.00
22657;BME280;11495;55.610;12.100;2022-08-27T04:00:24;100676.34;;;19.70;0.00
22657;BME280;11495;55.610;12.100;2022-08-27T04:02:52;100658.63;;;19.66;0.00
22657;BME280;11495;55.610;12.100;2022-08-27T04:05:17;100660.13;;;19.63;0.00
22657;BME280;11495;55.610;12.100;2022-08-27T04:07:43;100648.00;;;19.59;0.00
22657;BME280;11495;55.610;12.100;2022-08-27T04:10:10;100647.37;;;19.54;0.00
22657;BME280;11495;55.610;12.100;2022-08-27T04:12:36;100636.81;;;19.39;0.00
22657;BME280;11495;55.610;12.100;2022-08-27T04:15:03;100643.00;;;19.23;0.00
22657;BME280;11495;55.610;12.100;2022-08-27T04:17:30;100627.13;;;19.15;0.00
22657;BME280;11495;55.610;12.100;2022-08-27T04:19:56;100620.59;;;19.11;0.00
22657;BME280;11495;55.610;12.100;2022-08-27T04:22:21;100626.38;;;19.06;0.00
22657;BME280;11495;55.610;12.100;2022-08-27T04:24:48;100624.59;;;19.01;0.00
22657;BME280;11495;55.610;12.100;2022-08-27T04:27:14;100613.97;;;18.95;0.00
22657;BME280;11495;55.610;12.100;2022-08-27T04:29:40;100602.69;;;18.91;0.00
22657;BME280;11495;55.610;12.100;2022-08-27T04:32:06;100596.31;;;18.91;0.00
22657;BME280;11495;55.610;12.100;2022-08-27T04:34:31;100598.62;;;18.89;0.00
22657;BME280;11495;55.610;12.100;2022-08-27T04:36:57;100599.28;;;18.86;0.00
22657;BME280;11495;55.610;12.100;2022-08-27T04:39:24;100612.91;;;18.87;0.00
22657;BME280;11495;55.610;12.100;2022-08-27T04:41:52;100605.34;;;18.88;0.00
22657;BME280;11495;55.610;12.100;2022-08-27T04:44:20;100602.06;;;18.86;0.00
22657;BME280;11495;55.610;12.100;2022-08-27T04:46:47;100592.41;;;18.83;0.00
22657;BME280;11495;55.610;12.100;2022-08-27T04:49:14;100582.44;;;18.82;0.00
22657;BME280;11495;55.610;12.100;2022-08-27T04:51:40;100581.31;;;18.74;0.00
22657;BME280;11495;55.610;12.100;2022-08-27T04:54:06;100578.41;;;18.71;0.00
22657;BME280;11495;55.610;12.100;2022-08-27T04:56:34;100573.00;;;18.66;0.00
22657;BME280;11495;55.610;12.100;2022-08-27T04:59:01;100562.19;;;18.64;0.00
22657;BME280;11495;55.610;12.100;2022-08-27T05:01:28;100567.91;;;18.68;0.00
22657;BME280;11495;55.610;12.100;2022-08-27T05:03:54;100563.34;;;18.63;0.00
22657;BME280;11495;55.610;12.100;2022-08-27T05:06:21;100557.91;;;18.67;0.00
22657;BME280;11495;55.610;12.100;2022-08-27T05:08:48;100550.38;;;18.67;0.00
22657;BME280;11495;55.610;12.100;2022-08-27T05:11:16;100548.06;;;18.69;0.00
22657;BME280;11495;55.610;12.100;2022-08-27T05:13:43;100542.50;;;18.69;0.00
22657;BME280;11495;55.610;12.100;2022-08-27T05:16:15;100539.41;;;18.71;0.00
22657;BME280;11495;55.610;12.100;2022-08-27T05:18:42;100529.53;;;18.73;0.00
22657;BME280;11495;55.610;12.100;2022-08-27T05:21:07;100521.66;;;18.75;0.00
22657;BME280;11495;55.610;12.100;2022-08-27T05:23:33;100518.22;;;18.78;0.00
22657;BME280;11495;55.610;12.100;2022-08-27T05:25:59;100512.75;;;18.82;0.00
22657;BME280;11495;55.610;12.100;2022-08-27T05:28:26;100517.19;;;18.83;0.00
22657;BME280;11495;55.610;12.100;2022-08-27T05:31:00;100500.09;;;18.85;0.00
22657;BME280;11495;55.610;12.100;2022-08-27T05:33:27;100483.63;;;18.79;0.00
22657;BME280;11495;55.610;12.100;2022-08-27T05:35:54;100487.41;;;18.75;0.00
22657;BME280;11495;55.610;12.100;2022-08-27T05:38:22;100479.09;;;18.66;0.00
22657;BME280;11495;55.610;12.100;2022-08-27T05:40:50;100470.91;;;18.61;0.00
22657;BME280;11495;55.610;12.100;2022-08-27T05:43:17;100451.63;;;18.56;0.00
22657;BME280;11495;55.610;12.100;2022-08-27T05:45:45;100450.34;;;18.53;0.00
22657;BME280;11495;55.610;12.100;2022-08-27T05:48:12;100441.28;;;18.57;0.00
22657;BME280;11495;55.610;12.100;2022-08-27T05:50:39;100439.19;;;18.53;0.00
22657;BME280;11495;55.610;12.100;2022-08-27T05:53:05;100431.84;;;18.49;0.00
22657;BME280;11495;55.610;12.100;2022-08-27T05:55:49;100426.28;;;18.49;0.00
22657;BME280;11495;55.610;12.100;2022-08-27T05:58:14;100417.91;;;18.49;0.00
22657;BME280;11495;55.610;12.100;2022-08-27T06:00:59;100406.09;;;18.52;0.00
22657;BME280;11495;55.610;12.100;2022-08-27T06:03:35;100405.28;;;18.51;0.00
22657;BME280;11495;55.610;12.100;2022-08-27T06:06:08;100374.28;;;18.53;0.00
22657;BME280;11495;55.610;12.100;2022-08-27T06:08:36;100383.16;;;18.55;0.00
22657;BME280;11495;55.610;12.100;2022-08-27T06:11:03;100367.59;;;18.54;0.00
22657;BME280;11495;55.610;12.100;2022-08-27T06:13:29;100362.50;;;18.56;0.00
22657;BME280;11495;55.610;12.100;2022-08-27T06:18:26;100251.84;;;18.65;0.00
22657;BME280;11495;55.610;12.100;2022-08-27T06:20:52;100200.41;;;18.63;0.00
22657;BME280;11495;55.610;12.100;2022-08-27T06:23:18;100158.94;;;18.61;0.00
22657;BME280;11495;55.610;12.100;2022-08-27T06:25:43;100113.25;;;18.62;0.00
22657;BME280;11495;55.610;12.100;2022-08-27T06:28:09;100099.09;;;18.67;0.00
22657;BME280;11495;55.610;12.100;2022-08-27T06:30:34;100088.66;;;18.76;0.00
22657;BME280;11495;55.610;12.100;2022-08-27T06:32:59;100073.91;;;18.76;0.00
22657;BME280;11495;55.610;12.100;2022-08-27T06:35:25;100070.66;;;18.86;0.00
22657;BME280;11495;55.610;12.100;2022-08-27T06:37:50;100046.41;;;18.74;0.00
22657;BME280;11495;55.610;12.100;2022-08-27T06:40:16;100050.13;;;18.66;0.00
22657;BME280;11495;55.610;12.100;2022-08-27T06:42:41;100045.91;;;18.36;0.00
22657;BME280;11495;55.610;12.100;2022-08-27T06:45:07;100040.78;;;18.25;0.00
22657;BME280;11495;55.610;12.100;2022-08-27T06:47:33;100044.37;;;18.14;0.00
22657;BME280;11495;55.610;12.100;2022-08-27T06:49:58;100039.16;;;18.12;0.00
22657;BME280;11495;55.610;12.100;2022-08-27T06:52:23;100042.06;;;18.16;0.00
22657;BME280;11495;55.610;12.100;2022-08-27T06:54:49;100047.75;;;18.19;0.00
22657;BME280;11495;55.610;12.100;2022-08-27T06:57:15;100029.19;;;18.23;0.00
22657;BME280;11495;55.610;12.100;2022-08-27T06:59:40;100023.28;;;18.25;0.00
22657;BME280;11495;55.610;12.100;2022-08-27T07:02:06;100024.81;;;18.22;0.00
22657;BME280;11495;55.610;12.100;2022-08-27T07:04:31;100018.41;;;18.22;0.00
22657;BME280;11495;55.610;12.100;2022-08-27T07:06:57;100008.44;;;18.21;0.00
22657;BME280;11495;55.610;12.100;2022-08-27T07:09:22;100008.09;;;18.22;0.00
22657;BME280;11495;55.610;12.100;2022-08-27T07:11:49;100004.59;;;18.25;0.00
22657;BME280;11495;55.610;12.100;2022-08-27T07:14:15;100004.59;;;18.25;0.00
22657;BME280;11495;55.610;12.100;2022-08-27T07:16:40;100013.66;;;18.22;0.00
22657;BME280;11495;55.610;12.100;2022-08-27T07:19:07;99998.00;;;18.18;0.00
22657;BME280;11495;55.610;12.100;2022-08-27T07:21:37;100007.50;;;18.17;0.00
22657;BME280;11495;55.610;12.100;2022-08-27T07:24:04;100001.03;;;18.13;0.00
22657;BME280;11495;55.610;12.100;2022-08-27T07:26:33;100002.25;;;18.03;0.00
22657;BME280;11495;55.610;12.100;2022-08-27T07:28:59;100001.53;;;17.82;0.00
22657;BME280;11495;55.610;12.100;2022-08-27T07:31:27;100009.16;;;17.52;0.00
22657;BME280;11495;55.610;12.100;2022-08-27T07:33:53;100009.00;;;17.36;0.00
22657;BME280;11495;55.610;12.100;2022-08-27T07:36:20;100008.59;;;17.25;0.00
22657;BME280;11495;55.610;12.100;2022-08-27T07:38:46;100017.47;;;17.19;0.00
22657;BME280;11495;55.610;12.100;2022-08-27T07:41:12;100018.78;;;17.21;0.00
22657;BME280;11495;55.610;12.100;2022-08-27T07:43:38;100018.62;;;17.18;0.00
22657;BME280;11495;55.610;12.100;2022-08-27T07:46:22;100017.13;;;17.20;0.00
22657;BME280;11495;55.610;12.100;2022-08-27T07:48:49;100010.44;;;17.21;0.00
22657;BME280;11495;55.610;12.100;2022-08-27T07:51:17;99998.03;;;17.19;0.00
22657;BME280;11495;55.610;12.100;2022-08-27T07:53:45;100004.28;;;17.16;0.00
22657;BME280;11495;55.610;12.100;2022-08-27T07:56:11;99997.44;;;17.13;0.00
22657;BME280;11495;55.610;12.100;2022-08-27T07:58:37;99999.19;;;17.18;0.00
22657;BME280;11495;55.610;12.100;2022-08-27T08:01:03;100003.72;;;17.22;0.00
22657;BME280;11495;55.610;12.100;2022-08-27T08:03:29;100004.81;;;17.30;0.00
22657;BME280;11495;55.610;12.100;2022-08-27T08:05:56;100009.94;;;17.40;0.00
22657;BME280;11495;55.610;12.100;2022-08-27T08:08:26;100009.41;;;17.47;0.00
22657;BME280;11495;55.610;12.100;2022-08-27T08:10:51;100003.88;;;17.59;0.00
22657;BME280;11495;55.610;12.100;2022-08-27T08:13:17;99999.53;;;17.70;0.00
22657;BME280;11495;55.610;12.100;2022-08-27T08:15:45;100008.25;;;17.81;0.00
22657;BME280;11495;55.610;12.100;2022-08-27T08:18:11;100009.31;;;17.88;0.00
22657;BME280;11495;55.610;12.100;2022-08-27T08:20:36;100014.19;;;17.91;0.00
22657;BME280;11495;55.610;12.100;2022-08-27T08:23:02;100020.00;;;17.99;0.00
22657;BME280;11495;55.610;12.100;2022-08-27T08:25:28;100019.44;;;18.05;0.00
22657;BME280;11495;55.610;12.100;2022-08-27T08:27:53;100016.06;;;18.12;0.00
22657;BME280;11495;55.610;12.100;2022-08-27T08:30:21;100019.34;;;18.14;0.00
22657;BME280;11495;55.610;12.100;2022-08-27T08:32:46;100009.81;;;18.15;0.00
22657;BME280;11495;55.610;12.100;2022-08-27T08:35:12;100013.63;;;18.10;0.00
22657;BME280;11495;55.610;12.100;2022-08-27T08:37:38;100019.09;;;18.19;0.00
22657;BME280;11495;55.610;12.100;2022-08-27T08:40:04;100019.91;;;18.19;0.00
22657;BME280;11495;55.610;12.100;2022-08-27T08:42:45;100022.94;;;18.14;0.00
22657;BME280;11495;55.610;12.100;2022-08-27T08:45:19;100021.16;;;18.10;0.00
22657;BME280;11495;55.610;12.100;2022-08-27T08:47:52;100024.75;;;18.10;0.00
22657;BME280;11495;55.610;12.100;2022-08-27T08:50:37;100014.00;;;18.09;0.00
22657;BME280;11495;55.610;12.100;2022-08-27T08:53:20;100015.59;;;18.10;0.00
22657;BME280;11495;55.610;12.100;2022-08-27T08:55:55;100012.97;;;18.13;0.00
22657;BME280;11495;55.610;12.100;2022-08-27T09:01:08;100010.03;;;18.10;0.00
22657;BME280;11495;55.610;12.100;2022-08-27T09:03:38;100006.19;;;18.02;0.00
22657;BME280;11495;55.610;12.100;2022-08-27T09:06:46;100015.97;;;18.08;0.00
22657;BME280;11495;55.610;12.100;2022-08-27T09:12:46;100007.28;;;18.22;0.00
22657;BME280;11495;55.610;12.100;2022-08-27T09:17:28;99997.66;;;18.32;0.00
22657;BME280;11495;55.610;12.100;2022-08-27T09:19:54;99997.41;;;18.37;0.00
22657;BME280;11495;55.610;12.100;2022-08-27T09:27:52;99978.28;;;18.72;0.00
22657;BME280;11495;55.610;12.100;2022-08-27T09:30:22;99973.62;;;18.88;0.00
22657;BME280;11495;55.610;12.100;2022-08-27T09:32:53;99973.13;;;18.98;0.00
22657;BME280;11495;55.610;12.100;2022-08-27T09:35:21;99975.53;;;19.12;0.00
22657;BME280;11495;55.610;12.100;2022-08-27T09:37:51;99974.56;;;19.20;0.00
22657;BME280;11495;55.610;12.100;2022-08-27T09:40:28;99972.31;;;19.26;0.00
22657;BME280;11495;55.610;12.100;2022-08-27T09:43:04;99968.88;;;19.45;0.00
22657;BME280;11495;55.610;12.100;2022-08-27T09:45:35;99967.72;;;19.46;0.00
22657;BME280;11495;55.610;12.100;2022-08-27T09:48:10;99966.75;;;19.54;0.00
22657;BME280;11495;55.610;12.100;2022-08-27T09:50:45;99970.19;;;19.63;0.00
22657;BME280;11495;55.610;12.100;2022-08-27T09:53:29;99975.34;;;19.49;0.00
22657;BME280;11495;55.610;12.100;2022-08-27T09:56:03;99970.37;;;19.42;0.00
22657;BME280;11495;55.610;12.100;2022-08-27T09:58:53;99971.84;;;19.52;0.00
22657;BME280;11495;55.610;12.100;2022-08-27T10:01:25;99974.47;;;19.45;0.00
22657;BME280;11495;55.610;12.100;2022-08-27T10:04:11;99970.28;;;19.39;0.00
22657;BME280;11495;55.610;12.100;2022-08-27T10:06:45;99973.81;;;19.51;0.00
22657;BME280;11495;55.610;12.100;2022-08-27T10:12:08;99955.78;;;19.61;0.00
22657;BME280;11495;55.610;12.100;2022-08-27T10:14:44;99957.31;;;19.58;0.00
22657;BME280;11495;55.610;12.100;2022-08-27T10:20:00;99951.12;;;19.65;0.00
22657;BME280;11495;55.610;12.100;2022-08-27T10:23:00;99948.25;;;19.61;0.00
22657;BME280;11495;55.610;12.100;2022-08-27T10:33:21;99927.31;;;19.55;0.00
22657;BME280;11495;55.610;12.100;2022-08-27T10:36:02;99924.19;;;19.57;0.00
22657;BME280;11495;55.610;12.100;2022-08-27T10:41:21;99925.47;;;19.75;0.00
22657;BME280;11495;55.610;12.100;2022-08-27T10:44:33;99925.66;;;19.82;0.00
22657;BME280;11495;55.610;12.100;2022-08-27T10:50:26;99922.63;;;19.87;0.00
22657;BME280;11495;55.610;12.100;2022-08-27T10:52:57;99921.88;;;19.90;0.00
22657;BME280;11495;55.610;12.100;2022-08-27T11:00:42;99935.66;;;19.83;0.00
22657;BME280;11495;55.610;12.100;2022-08-27T11:03:29;99931.59;;;19.81;0.00
22657;BME280;11495;55.610;12.100;2022-08-27T11:06:02;99927.81;;;19.89;0.00
22657;BME280;11495;55.610;12.100;2022-08-27T11:08:43;99931.97;;;19.95;0.00
22657;BME280;11495;55.610;12.100;2022-08-27T11:11:25;99922.94;;;20.02;0.00
22657;BME280;11495;55.610;12.100;2022-08-27T11:13:54;99933.03;;;20.06;0.00
22657;BME280;11495;55.610;12.100;2022-08-27T11:16:26;99941.34;;;19.87;0.00
22657;BME280;11495;55.610;12.100;2022-08-27T11:18:58;99939.81;;;19.89;0.00
22657;BME280;11495;55.610;12.100;2022-08-27T11:21:41;99940.87;;;20.01;0.00
22657;BME280;11495;55.610;12.100;2022-08-27T11:24:13;99944.12;;;19.87;0.00
22657;BME280;11495;55.610;12.100;2022-08-27T11:26:41;99951.12;;;19.81;0.00
22657;BME280;11495;55.610;12.100;2022-08-27T11:29:19;99949.25;;;19.85;0.00
22657;BME280;11495;55.610;12.100;2022-08-27T11:31:55;99955.63;;;19.85;0.00
22657;BME280;11495;55.610;12.100;2022-08-27T11:34:29;99955.47;;;19.78;0.00
22657;BME280;11495;55.610;12.100;2022-08-27T11:37:23;99953.94;;;19.81;0.00
22657;BME280;11495;55.610;12.100;2022-08-27T11:40:09;99967.31;;;19.75;0.00
22657;BME280;11495;55.610;12.100;2022-08-27T11:45:19;99968.94;;;19.76;0.00
22657;BME280;11495;55.610;12.100;2022-08-27T11:47:53;99963.56;;;19.83;0.00
22657;BME280;11495;55.610;12.100;2022-08-27T11:50:22;99963.81;;;19.94;0.00
22657;BME280;11495;55.610;12.100;2022-08-27T11:53:03;99967.25;;;19.87;0.00
22657;BME280;11495;55.610;12.100;2022-08-27T11:55:37;99968.88;;;19.88;0.00
22657;BME280;11495;55.610;12.100;2022-08-27T12:00:33;99965.81;;;19.93;0.00
22657;BME280;11495;55.610;12.100;2022-08-27T12:03:02;99959.69;;;19.88;0.00
22657;BME280;11495;55.610;12.100;2022-08-27T12:05:37;99963.81;;;19.94;0.00
22657;BME280;11495;55.610;12.100;2022-08-27T12:24:56;99974.44;;;19.73;0.00
22657;BME280;11495;55.610;12.100;2022-08-27T12:30:00;99968.44;;;19.86;0.00
22657;BME280;11495;55.610;12.100;2022-08-27T12:32:31;99980.59;;;19.78;0.00
22657;BME280;11495;55.610;12.100;2022-08-27T12:35:11;99985.69;;;19.76;0.00
22657;BME280;11495;55.610;12.100;2022-08-27T12:42:44;99995.00;;;19.96;0.00
22657;BME280;11495;55.610;12.100;2022-08-27T12:45:20;99999.78;;;20.11;0.00
22657;BME280;11495;55.610;12.100;2022-08-27T12:47:46;100001.84;;;20.14;0.00
22657;BME280;11495;55.610;12.100;2022-08-27T12:50:12;100006.50;;;20.26;0.00
22657;BME280;11495;55.610;12.100;2022-08-27T12:55:55;100019.44;;;20.46;0.00
22657;BME280;11495;55.610;12.100;2022-08-27T12:59:07;100024.88;;;20.43;0.00
22657;BME280;11495;55.610;12.100;2022-08-27T13:04:02;100040.41;;;20.56;0.00
22657;BME280;11495;55.610;12.100;2022-08-27T13:08:57;100061.19;;;20.90;0.00
22657;BME280;11495;55.610;12.100;2022-08-27T13:11:34;100087.78;;;20.84;0.00
22657;BME280;11495;55.610;12.100;2022-08-27T13:14:19;100090.38;;;21.09;0.00
22657;BME280;11495;55.610;12.100;2022-08-27T13:16:49;100111.56;;;21.10;0.00
22657;BME280;11495;55.610;12.100;2022-08-27T13:19:28;100136.91;;;21.01;0.00
22657;BME280;11495;55.610;12.100;2022-08-27T13:21:55;100177.59;;;20.98;0.00
22657;BME280;11495;55.610;12.100;2022-08-27T13:24:31;100228.38;;;21.00;0.00
22657;BME280;11495;55.610;12.100;2022-08-27T13:26:57;100279.72;;;21.08;0.00
22657;BME280;11495;55.610;12.100;2022-08-27T13:29:24;100327.50;;;21.31;0.00
22657;BME280;11495;55.610;12.100;2022-08-27T13:31:50;100402.44;;;21.53;0.00
22657;BME280;11495;55.610;12.100;2022-08-27T13:34:21;100474.31;;;21.81;0.00
22657;BME280;11495;55.610;12.100;2022-08-27T13:37:53;100580.09;;;21.87;0.00
22657;BME280;11495;55.610;12.100;2022-08-27T13:39:59;100688.03;;;21.85;0.00
22657;BME280;11495;55.610;12.100;2022-08-27T13:42:25;100772.94;;;22.01;0.00
22657;BME280;11495;55.610;12.100;2022-08-27T13:44:53;100839.22;;;21.97;0.00
22657;BME280;11495;55.610;12.100;2022-08-27T13:47:26;100892.69;;;22.04;0.00
22657;BME280;11495;55.610;12.100;2022-08-27T13:50:08;100927.59;;;22.19;0.00
22657;BME280;11495;55.610;12.100;2022-08-27T13:52:39;100987.47;;;22.14;0.00
22657;BME280;11495;55.610;12.100;2022-08-27T13:55:26;101022.38;;;22.17;0.00
22657;BME280;11495;55.610;12.100;2022-08-27T13:57:52;101072.50;;;22.19;0.00
22657;BME280;11495;55.610;12.100;2022-08-27T14:00:28;101092.22;;;22.22;0.00
22657;BME280;11495;55.610;12.100;2022-08-27T14:02:56;101146.91;;;22.07;0.00
22657;BME280;11495;55.610;12.100;2022-08-27T14:07:59;101210.94;;;21.76;0.00
22657;BME280;11495;55.610;12.100;2022-08-27T14:10:43;101212.72;;;21.80;0.00
22657;BME280;11495;55.610;12.100;2022-08-27T14:15:49;101222.28;;;21.58;0.00
22657;BME280;11495;55.610;12.100;2022-08-27T14:18:34;101199.75;;;21.55;0.00
22657;BME280;11495;55.610;12.100;2022-08-27T14:21:01;101199.50;;;21.69;0.00
22657;BME280;11495;55.610;12.100;2022-08-27T14:23:28;101178.19;;;21.76;0.00
22657;BME280;11495;55.610;12.100;2022-08-27T14:25:57;101178.44;;;21.63;0.00
22657;BME280;11495;55.610;12.100;2022-08-27T14:28:31;101173.31;;;21.65;0.00
22657;BME280;11495;55.610;12.100;2022-08-27T14:30:56;101146.16;;;21.98;0.00